Time;durP1;ratioP1;P1;durP2;ratioP2;P2;SDS_P1;SDS_P2;PMS_P1;PMS_P2;Temp;Humidity;BMP_temperature;BMP_pressure;BME280_temperature;BME280_humidity;BME280_pressure;Samples;Min_cycle;Max_cycle;Signal;HPM_P1;HPM_P2
2022/07/26 00:01:34;;;;;;;7.55;5.93;;;20.00;99.90;;;;;;5010242;28;20041;-81
2022/07/26 00:04:00;;;;;;;6.95;5.40;;;20.00;99.90;;;;;;4997228;28;20040;-81
2022/07/26 00:06:26;;;;;;;5.90;5.30;;;20.00;99.90;;;;;;5030016;28;20026;-80
2022/07/26 00:08:52;;;;;;;6.90;5.55;;;20.00;99.90;;;;;;5041660;28;20029;-80
2022/07/26 00:11:18;;;;;;;6.95;6.05;;;20.00;99.90;;;;;;5032797;28;20026;-80
2022/07/26 00:13:44;;;;;;;6.30;5.38;;;20.00;99.90;;;;;;5036897;28;20429;-80
2022/07/26 00:16:10;;;;;;;6.95;5.25;;;20.00;99.90;;;;;;5029505;28;20480;-79
2022/07/26 00:18:36;;;;;;;10.27;6.10;;;20.00;99.90;;;;;;5014181;28;20071;-79
2022/07/26 00:21:02;;;;;;;7.95;6.00;;;20.00;99.90;;;;;;5028970;28;20038;-80
2022/07/26 00:23:28;;;;;;;8.52;5.40;;;20.00;99.90;;;;;;5029445;28;20033;-80
2022/07/26 00:25:54;;;;;;;8.35;6.00;;;20.00;99.90;;;;;;5029258;28;20034;-79
2022/07/26 00:28:20;;;;;;;8.45;5.43;;;20.00;99.90;;;;;;5032497;28;20025;-79
2022/07/26 00:30:46;;;;;;;6.43;5.78;;;19.90;99.90;;;;;;5018457;28;20041;-79
2022/07/26 00:33:12;;;;;;;7.32;5.80;;;19.90;99.90;;;;;;5028714;28;20202;-80
2022/07/26 00:35:37;;;;;;;7.13;5.47;;;19.90;99.90;;;;;;5029106;28;20034;-80
2022/07/26 00:38:03;;;;;;;6.68;4.78;;;19.90;99.90;;;;;;5028801;28;20037;-79
2022/07/26 00:40:29;;;;;;;5.45;4.95;;;19.90;99.90;;;;;;5031929;28;20033;-79
2022/07/26 00:42:55;;;;;;;6.13;5.30;;;19.80;99.90;;;;;;5030560;28;20427;-79
2022/07/26 00:45:21;;;;;;;5.85;5.25;;;19.90;99.90;;;;;;5004604;28;20033;-79
2022/07/26 00:47:47;;;;;;;7.03;5.80;;;19.90;99.90;;;;;;5017848;28;20041;-79
2022/07/26 00:50:15;;;;;;;6.25;5.15;;;19.80;99.90;;;;;;5011172;28;20392;-79
2022/07/26 00:52:43;;;;;;;5.38;4.85;;;19.80;99.90;;;;;;5006375;28;20047;-79
2022/07/26 00:55:09;;;;;;;7.28;4.78;;;19.80;99.90;;;;;;5031254;28;20090;-79
2022/07/26 00:57:35;;;;;;;5.22;4.72;;;19.70;99.90;;;;;;5016756;28;20037;-80
2022/07/26 01:00:04;;;;;;;5.15;4.65;;;19.70;99.90;;;;;;5040907;28;20078;-80
2022/07/26 01:02:30;;;;;;;7.45;5.05;;;19.70;99.90;;;;;;5034421;28;20025;-80
2022/07/26 01:04:56;;;;;;;5.05;4.55;;;19.70;99.90;;;;;;5027219;28;20466;-81
2022/07/26 01:07:22;;;;;;;7.28;4.78;;;19.70;99.90;;;;;;5040962;28;20022;-78
2022/07/26 01:09:49;;;;;;;6.07;4.60;;;19.70;99.90;;;;;;5049134;28;20029;-78
2022/07/26 01:12:15;;;;;;;5.78;5.00;;;19.70;99.90;;;;;;5042131;28;20541;-80
2022/07/26 01:14:44;;;;;;;7.00;5.10;;;19.70;99.90;;;;;;5019452;28;20068;-79
2022/07/26 01:17:12;;;;;;;7.60;4.70;;;19.70;99.90;;;;;;5032306;28;20545;-79
2022/07/26 01:19:38;;;;;;;6.22;5.20;;;19.70;99.90;;;;;;5058764;28;20112;-80
2022/07/26 01:22:03;;;;;;;5.13;4.35;;;19.70;99.90;;;;;;5058830;28;20064;-79
2022/07/26 01:24:29;;;;;;;6.25;4.97;;;19.60;99.90;;;;;;5047074;28;20040;-78
2022/07/26 01:26:55;;;;;;;5.90;5.13;;;19.60;99.90;;;;;;5023633;28;20480;-79
2022/07/26 01:29:25;;;;;;;6.03;5.43;;;19.70;99.90;;;;;;5003857;28;20051;-78
2022/07/26 01:31:51;;;;;;;8.07;5.15;;;19.70;99.90;;;;;;5046072;28;20053;-80
2022/07/26 01:34:17;;;;;;;8.85;4.90;;;19.60;99.90;;;;;;5017370;28;20037;-80
2022/07/26 01:36:43;;;;;;;5.13;4.32;;;19.60;99.90;;;;;;5034964;28;20488;-80
2022/07/26 01:39:09;;;;;;;5.95;4.25;;;19.60;99.90;;;;;;5026375;28;20088;-79
2022/07/26 01:41:34;;;;;;;5.50;4.35;;;19.50;99.90;;;;;;5040493;28;20044;-79
2022/07/26 01:44:01;;;;;;;7.07;4.47;;;19.50;99.90;;;;;;5033191;28;20046;-79
2022/07/26 01:46:27;;;;;;;6.53;4.10;;;19.50;99.90;;;;;;5033828;28;20033;-81
2022/07/26 01:48:53;;;;;;;4.72;4.07;;;19.50;99.90;;;;;;5035217;28;20042;-79
2022/07/26 01:51:19;;;;;;;5.00;3.90;;;19.50;99.90;;;;;;5016934;28;20090;-80
2022/07/26 01:53:44;;;;;;;4.85;4.35;;;19.50;99.90;;;;;;5031897;28;20479;-80
2022/07/26 01:56:14;;;;;;;5.32;4.28;;;19.40;99.90;;;;;;5028099;28;20414;-79
2022/07/26 01:58:40;;;;;;;5.05;3.75;;;19.40;99.90;;;;;;5036510;28;20047;-79
2022/07/26 02:01:07;;;;;;;6.45;4.20;;;19.40;99.90;;;;;;5034714;28;20126;-80
2022/07/26 02:03:33;;;;;;;5.13;3.58;;;19.40;99.90;;;;;;5033234;28;20063;-79
2022/07/26 02:05:58;;;;;;;4.38;3.67;;;19.40;99.90;;;;;;5051265;28;20086;-78
2022/07/26 02:08:24;;;;;;;5.55;3.80;;;19.40;99.90;;;;;;5039992;28;20024;-78
2022/07/26 02:11:00;;;;;;;3.30;3.00;;;19.40;99.90;;;;;;5035813;28;20041;-78
2022/07/26 02:13:30;;;;;;;3.78;3.15;;;19.30;99.90;;;;;;5033040;28;20120;-80
2022/07/26 02:15:59;;;;;;;3.83;2.90;;;19.30;99.90;;;;;;5003682;28;20045;-78
2022/07/26 02:18:27;;;;;;;5.88;3.20;;;19.30;99.90;;;;;;5048259;28;20036;-79
2022/07/26 02:20:53;;;;;;;5.30;3.00;;;19.30;99.90;;;;;;5032518;28;20133;-80
2022/07/26 02:23:19;;;;;;;4.00;3.13;;;19.30;99.90;;;;;;5035629;28;20029;-80
2022/07/26 02:25:46;;;;;;;4.57;3.40;;;19.30;99.90;;;;;;5036552;28;20033;-80
2022/07/26 02:28:13;;;;;;;3.47;3.17;;;19.20;99.90;;;;;;5031888;28;20030;-80
2022/07/26 02:30:39;;;;;;;3.58;3.28;;;19.20;99.90;;;;;;5047983;28;20034;-78
2022/07/26 02:33:05;;;;;;;3.45;2.78;;;19.20;99.90;;;;;;5047146;28;20124;-80
2022/07/26 02:35:30;;;;;;;4.22;2.80;;;19.20;99.90;;;;;;5048410;28;20041;-80
2022/07/26 02:38:08;;;;;;;3.63;3.05;;;19.20;99.90;;;;;;5037658;28;20075;-79
2022/07/26 02:40:36;;;;;;;3.75;2.97;;;19.10;99.90;;;;;;5024281;28;20048;-79
2022/07/26 02:43:02;;;;;;;3.85;2.70;;;19.10;99.90;;;;;;5051959;28;20048;-80
2022/07/26 02:45:28;;;;;;;5.63;2.80;;;19.10;99.90;;;;;;5043594;28;20487;-80
2022/07/26 02:47:55;;;;;;;3.75;2.83;;;19.10;99.90;;;;;;4997065;28;20034;-80
2022/07/26 02:50:23;;;;;;;5.53;3.55;;;19.10;99.90;;;;;;5045749;28;20060;-80
2022/07/26 02:52:49;;;;;;;3.63;3.08;;;19.10;99.90;;;;;;5030517;28;20029;-79
2022/07/26 02:55:17;;;;;;;4.78;3.10;;;19.10;99.90;;;;;;5053875;28;20037;-80
2022/07/26 02:57:43;;;;;;;3.88;2.33;;;19.10;99.90;;;;;;5045475;28;20075;-80
2022/07/26 03:00:11;;;;;;;3.10;2.63;;;19.10;99.90;;;;;;5050950;28;20622;-79
2022/07/26 03:02:37;;;;;;;4.57;3.03;;;19.10;99.90;;;;;;5032523;28;20097;-80
2022/07/26 03:05:04;;;;;;;3.00;2.65;;;19.10;99.90;;;;;;5052613;28;20418;-80
2022/07/26 03:07:31;;;;;;;3.38;2.72;;;19.10;99.90;;;;;;5037282;28;20033;-80
2022/07/26 03:09:57;;;;;;;4.28;2.83;;;19.10;99.90;;;;;;5044649;28;20365;-79
2022/07/26 03:12:23;;;;;;;2.67;2.38;;;19.10;99.90;;;;;;5033319;28;20033;-76
2022/07/26 03:14:49;;;;;;;5.70;3.15;;;19.10;99.90;;;;;;5021079;28;20037;-79
2022/07/26 03:17:14;;;;;;;5.03;3.17;;;19.10;99.90;;;;;;4990689;28;20041;-79
2022/07/26 03:19:40;;;;;;;3.33;2.80;;;19.00;99.90;;;;;;5013687;28;20041;-79
2022/07/26 03:22:06;;;;;;;3.45;2.85;;;19.00;99.90;;;;;;5043651;28;20028;-79
2022/07/26 03:24:32;;;;;;;2.88;2.58;;;19.00;99.90;;;;;;5051143;28;20041;-78
2022/07/26 03:26:57;;;;;;;4.85;2.83;;;18.90;99.90;;;;;;5029312;28;20044;-79
2022/07/26 03:29:23;;;;;;;4.38;2.60;;;18.90;99.90;;;;;;5022287;28;20037;-80
2022/07/26 03:31:50;;;;;;;4.32;2.83;;;18.80;99.90;;;;;;5033625;28;20046;-80
2022/07/26 03:34:16;;;;;;;6.40;2.88;;;18.80;99.90;;;;;;5040235;28;20104;-80
2022/07/26 03:36:45;;;;;;;4.80;3.08;;;18.80;99.90;;;;;;5038985;28;20029;-80
2022/07/26 03:39:11;;;;;;;5.85;2.40;;;18.80;99.90;;;;;;5046979;28;20038;-79
2022/07/26 03:41:37;;;;;;;4.10;2.95;;;18.70;99.90;;;;;;5010843;28;20197;-80
2022/07/26 03:44:03;;;;;;;4.85;2.70;;;18.70;99.90;;;;;;5051081;28;20475;-80
2022/07/26 03:46:29;;;;;;;4.05;2.72;;;18.80;99.90;;;;;;5050659;28;20052;-80
2022/07/26 03:48:55;;;;;;;4.18;3.20;;;18.80;99.90;;;;;;5019020;28;20030;-79
2022/07/26 03:51:22;;;;;;;3.67;3.00;;;18.80;99.90;;;;;;5034744;28;20039;-80
2022/07/26 03:53:49;;;;;;;3.88;2.70;;;18.80;99.90;;;;;;5046794;28;20061;-80
2022/07/26 03:56:33;;;;;;;4.28;3.05;;;18.70;99.90;;;;;;5020073;28;20087;-79
2022/07/26 03:59:04;;;;;;;4.30;3.20;;;18.80;99.90;;;;;;5033650;28;20040;-80
2022/07/26 04:01:31;;;;;;;3.70;2.58;;;18.80;99.90;;;;;;5045914;28;20045;-78
2022/07/26 04:03:57;;;;;;;4.90;2.80;;;18.70;99.90;;;;;;5040701;28;20032;-80
2022/07/26 04:06:23;;;;;;;4.30;2.40;;;18.70;99.90;;;;;;5043169;28;20026;-77
2022/07/26 04:08:49;;;;;;;3.55;2.92;;;18.70;99.90;;;;;;5036893;28;20025;-79
2022/07/26 04:11:14;;;;;;;4.50;2.88;;;18.70;99.90;;;;;;5012370;28;20064;-80
2022/07/26 04:13:40;;;;;;;3.00;2.38;;;18.70;99.90;;;;;;5054009;28;20038;-77
2022/07/26 04:16:06;;;;;;;3.95;2.63;;;18.60;99.90;;;;;;5037202;28;20041;-79
2022/07/26 04:18:32;;;;;;;4.30;2.60;;;18.60;99.90;;;;;;5033126;28;20031;-79
2022/07/26 04:20:58;;;;;;;4.60;2.58;;;18.60;99.90;;;;;;5030552;28;20744;-79
2022/07/26 04:23:24;;;;;;;5.28;2.40;;;18.60;99.90;;;;;;5025477;28;20035;-79
2022/07/26 04:25:49;;;;;;;4.60;2.63;;;18.60;99.90;;;;;;5031877;28;20163;-80
2022/07/26 04:28:15;;;;;;;2.60;2.40;;;18.60;99.90;;;;;;5051791;28;20136;-79
2022/07/26 04:30:41;;;;;;;4.15;2.15;;;18.50;99.90;;;;;;5034870;28;20514;-80
2022/07/26 04:33:07;;;;;;;2.88;2.30;;;18.60;99.90;;;;;;5035660;28;20441;-80
2022/07/26 04:35:33;;;;;;;6.20;3.05;;;18.60;99.90;;;;;;5038523;28;20025;-80
2022/07/26 04:38:01;;;;;;;4.38;2.67;;;18.60;99.90;;;;;;5049375;28;20606;-80
2022/07/26 04:40:27;;;;;;;4.70;2.58;;;18.70;99.90;;;;;;5055770;28;20029;-79
2022/07/26 04:42:53;;;;;;;2.45;2.25;;;18.70;99.90;;;;;;5019953;28;20029;-80
2022/07/26 04:45:20;;;;;;;3.08;2.42;;;18.70;99.90;;;;;;5050702;28;20025;-80
2022/07/26 04:47:48;;;;;;;3.03;2.67;;;18.80;99.90;;;;;;5044378;28;20092;-78
2022/07/26 04:50:15;;;;;;;3.40;2.55;;;18.80;99.90;;;;;;5035555;28;20052;-79
2022/07/26 04:52:41;;;;;;;4.85;2.40;;;18.80;99.90;;;;;;5051252;28;20029;-79
2022/07/26 04:55:08;;;;;;;3.55;2.10;;;18.90;99.90;;;;;;5046996;28;20105;-80
2022/07/26 04:57:34;;;;;;;4.72;2.50;;;18.90;99.90;;;;;;5056893;28;20037;-78
2022/07/26 05:00:00;;;;;;;3.53;2.50;;;18.90;99.90;;;;;;5030640;28;20036;-80
2022/07/26 05:02:26;;;;;;;5.00;2.53;;;19.00;99.90;;;;;;5043700;28;20424;-79
2022/07/26 05:04:52;;;;;;;4.05;2.35;;;19.00;99.90;;;;;;5020983;28;20029;-80
2022/07/26 05:07:18;;;;;;;2.83;2.50;;;19.10;99.90;;;;;;5043896;28;20119;-79
2022/07/26 05:09:44;;;;;;;3.08;2.65;;;19.10;99.90;;;;;;5055227;28;20029;-77
2022/07/26 05:12:10;;;;;;;2.78;2.35;;;19.20;99.90;;;;;;5035578;28;20029;-80
2022/07/26 05:14:38;;;;;;;7.28;2.80;;;19.20;99.90;;;;;;5046889;28;20428;-80
2022/07/26 05:17:04;;;;;;;4.90;2.72;;;19.30;99.90;;;;;;5029921;28;20025;-79
2022/07/26 05:19:30;;;;;;;3.03;2.65;;;19.40;99.90;;;;;;5053262;28;20037;-79
2022/07/26 05:21:56;;;;;;;2.72;2.50;;;19.50;99.90;;;;;;5046514;28;20034;-79
2022/07/26 05:24:22;;;;;;;3.20;2.50;;;19.70;99.90;;;;;;5039739;28;20029;-78
2022/07/26 05:26:48;;;;;;;4.43;2.58;;;19.70;99.90;;;;;;5038671;28;20034;-80
2022/07/26 05:29:13;;;;;;;3.10;2.80;;;19.80;99.90;;;;;;5038729;28;20167;-78
2022/07/26 05:31:39;;;;;;;3.88;2.95;;;19.90;99.90;;;;;;5027761;28;20033;-79
2022/07/26 05:34:06;;;;;;;4.28;2.70;;;20.00;99.90;;;;;;5027518;28;20029;-79
2022/07/26 05:36:32;;;;;;;5.20;2.97;;;20.10;99.90;;;;;;5038839;28;20973;-80
2022/07/26 05:38:58;;;;;;;2.60;2.40;;;20.20;99.90;;;;;;5036545;28;20037;-79
2022/07/26 05:41:24;;;;;;;4.45;2.78;;;20.30;99.90;;;;;;5036259;28;20037;-79
2022/07/26 05:43:50;;;;;;;3.58;2.63;;;20.40;99.90;;;;;;5048296;28;20033;-78
2022/07/26 05:46:15;;;;;;;3.45;2.70;;;20.50;99.90;;;;;;5033295;28;20039;-78
2022/07/26 05:48:42;;;;;;;2.45;2.25;;;20.60;99.90;;;;;;5037248;28;20030;-79
2022/07/26 05:51:09;;;;;;;3.45;2.20;;;20.60;99.90;;;;;;5036922;28;20034;-79
2022/07/26 05:53:35;;;;;;;2.60;2.40;;;20.80;99.90;;;;;;5044483;28;20033;-78
2022/07/26 05:56:00;;;;;;;3.25;2.10;;;21.00;99.90;;;;;;5034293;28;20051;-78
2022/07/26 05:58:26;;;;;;;3.63;2.20;;;21.10;99.90;;;;;;5024738;28;20033;-78
2022/07/26 06:00:52;;;;;;;2.38;2.17;;;21.40;99.90;;;;;;5041752;28;20114;-79
2022/07/26 06:03:21;;;;;;;5.28;2.30;;;21.60;99.90;;;;;;5038566;28;20549;-79
2022/07/26 06:05:51;;;;;;;3.20;2.33;;;21.90;99.90;;;;;;5044859;28;20030;-77
2022/07/26 06:08:18;;;;;;;3.92;2.28;;;22.10;99.90;;;;;;5035525;28;20021;-77
2022/07/26 06:10:45;;;;;;;2.72;2.35;;;22.30;99.90;;;;;;5041131;28;20029;-77
2022/07/26 06:13:11;;;;;;;3.85;1.85;;;22.60;99.90;;;;;;5033216;28;20029;-78
2022/07/26 06:15:37;;;;;;;2.10;1.95;;;22.70;99.90;;;;;;5050601;28;20523;-78
2022/07/26 06:18:06;;;;;;;3.42;1.85;;;22.80;99.90;;;;;;5039781;28;20175;-77
2022/07/26 06:20:32;;;;;;;4.72;1.85;;;22.90;99.90;;;;;;5033397;28;20040;-78
2022/07/26 06:22:59;;;;;;;2.85;1.90;;;23.00;99.90;;;;;;5035800;28;20026;-78
2022/07/26 06:25:25;;;;;;;5.25;2.00;;;23.00;99.90;;;;;;5037256;28;20033;-77
2022/07/26 06:27:51;;;;;;;4.00;2.17;;;23.10;99.90;;;;;;5034759;28;20037;-77
2022/07/26 06:30:17;;;;;;;2.08;1.70;;;23.20;99.90;;;;;;5039872;28;20043;-78
2022/07/26 06:32:43;;;;;;;2.47;1.90;;;23.40;99.90;;;;;;5048035;28;20033;-77
2022/07/26 06:35:12;;;;;;;4.75;1.73;;;23.60;99.90;;;;;;5041077;28;20045;-76
2022/07/26 06:37:40;;;;;;;3.47;1.67;;;23.80;99.90;;;;;;5017628;28;20040;-78
2022/07/26 06:40:08;;;;;;;2.22;1.70;;;23.80;99.90;;;;;;5048755;28;20086;-77
2022/07/26 06:42:34;;;;;;;2.97;1.80;;;23.80;99.90;;;;;;5012177;28;20116;-78
2022/07/26 06:45:02;;;;;;;3.22;1.63;;;23.90;99.90;;;;;;5040746;28;20030;-78
2022/07/26 06:47:28;;;;;;;1.77;1.50;;;23.90;99.90;;;;;;5034858;28;20041;-79
2022/07/26 06:49:53;;;;;;;3.50;1.58;;;23.80;99.90;;;;;;5014953;28;20117;-78
2022/07/26 06:52:19;;;;;;;2.38;1.60;;;23.60;99.90;;;;;;5027505;28;20041;-78
2022/07/26 06:54:45;;;;;;;3.83;2.05;;;23.40;99.90;;;;;;5031575;28;20040;-78
2022/07/26 06:57:11;;;;;;;2.30;1.42;;;23.30;99.90;;;;;;5010397;28;20044;-78
2022/07/26 06:59:37;;;;;;;2.28;1.58;;;23.30;99.90;;;;;;5031057;28;20089;-79
2022/07/26 07:02:03;;;;;;;5.22;1.70;;;23.50;99.90;;;;;;5010433;28;20026;-79
2022/07/26 07:04:30;;;;;;;1.70;1.40;;;23.70;99.80;;;;;;5032820;28;20042;-79
2022/07/26 07:07:01;;;;;;;5.05;1.48;;;24.10;98.30;;;;;;5030301;28;20033;-79
2022/07/26 07:09:27;;;;;;;6.47;2.30;;;24.60;98.10;;;;;;4998599;28;20478;-79
2022/07/26 07:11:53;;;;;;;2.85;1.50;;;24.80;95.10;;;;;;5037502;28;20592;-79
2022/07/26 07:14:19;;;;;;;2.90;1.40;;;25.00;94.50;;;;;;5032038;28;20049;-79
2022/07/26 07:16:45;;;;;;;2.80;1.42;;;25.30;94.40;;;;;;5037706;28;20033;-79
2022/07/26 07:19:11;;;;;;;4.68;1.80;;;25.60;92.40;;;;;;5039734;28;20527;-79
2022/07/26 07:21:38;;;;;;;2.20;1.23;;;26.10;90.30;;;;;;5024126;28;20431;-79
2022/07/26 07:24:04;;;;;;;2.42;1.30;;;26.80;87.40;;;;;;5036097;28;20040;-78
2022/07/26 07:26:30;;;;;;;1.30;1.20;;;27.30;84.60;;;;;;5038326;28;20513;-79
2022/07/26 07:28:56;;;;;;;3.00;1.60;;;27.70;85.00;;;;;;5037169;28;20033;-79
2022/07/26 07:31:22;;;;;;;1.73;1.40;;;28.10;83.30;;;;;;5048624;28;20033;-79
2022/07/26 07:33:48;;;;;;;2.88;1.52;;;28.50;82.30;;;;;;5040957;28;20030;-79
2022/07/26 07:36:14;;;;;;;2.33;1.40;;;28.70;77.50;;;;;;5038902;28;20039;-79
2022/07/26 07:38:40;;;;;;;3.08;1.20;;;29.00;72.90;;;;;;5041614;28;20163;-78
2022/07/26 07:41:05;;;;;;;3.83;1.30;;;29.30;70.90;;;;;;5038581;28;20083;-79
2022/07/26 07:43:31;;;;;;;3.40;1.67;;;29.60;71.20;;;;;;5049693;28;20033;-78
2022/07/26 07:45:57;;;;;;;2.70;0.93;;;29.60;69.60;;;;;;5036557;28;20021;-79
2022/07/26 07:48:22;;;;;;;2.40;1.33;;;29.50;66.60;;;;;;5044450;28;20048;-78
2022/07/26 07:50:48;;;;;;;1.80;1.08;;;29.60;64.80;;;;;;5020691;28;20033;-79
2022/07/26 07:53:14;;;;;;;3.25;1.02;;;29.60;65.60;;;;;;5029318;28;20503;-79
2022/07/26 07:55:40;;;;;;;2.60;0.98;;;29.50;65.30;;;;;;5031543;28;20033;-79
2022/07/26 07:58:05;;;;;;;2.40;1.10;;;29.70;66.10;;;;;;5035396;28;20097;-79
2022/07/26 08:00:31;;;;;;;4.65;1.30;;;29.60;62.90;;;;;;5038435;28;20037;-80
2022/07/26 08:02:57;;;;;;;2.00;1.10;;;29.20;64.00;;;;;;5034526;28;20041;-78
2022/07/26 08:05:23;;;;;;;4.93;1.20;;;28.70;63.90;;;;;;5046959;28;20035;-79
2022/07/26 08:07:48;;;;;;;3.40;1.10;;;28.10;64.80;;;;;;5011066;28;20056;-79
2022/07/26 08:10:15;;;;;;;3.13;1.40;;;27.50;68.50;;;;;;5035064;28;20060;-78
2022/07/26 08:12:41;;;;;;;2.33;1.27;;;27.10;69.70;;;;;;5041282;28;20037;-78
2022/07/26 08:15:08;;;;;;;1.98;1.23;;;26.60;70.30;;;;;;5030974;28;20040;-78
2022/07/26 08:17:35;;;;;;;1.98;1.23;;;26.30;73.70;;;;;;5042829;28;20029;-79
2022/07/26 08:20:01;;;;;;;3.10;1.08;;;26.00;72.60;;;;;;5046572;28;20099;-79
2022/07/26 08:22:26;;;;;;;2.58;1.30;;;25.60;75.10;;;;;;5049971;28;20056;-79
2022/07/26 08:24:52;;;;;;;3.20;1.50;;;25.30;77.60;;;;;;5049662;28;20044;-79
2022/07/26 08:27:18;;;;;;;2.38;1.48;;;24.90;79.30;;;;;;5054527;28;20518;-78
2022/07/26 08:29:44;;;;;;;4.72;1.55;;;24.60;80.40;;;;;;5046938;28;20037;-79
2022/07/26 08:32:10;;;;;;;2.63;1.20;;;24.40;79.00;;;;;;5036376;28;20046;-79
2022/07/26 08:34:36;;;;;;;3.38;1.52;;;24.20;82.00;;;;;;5025370;28;20037;-79
2022/07/26 08:37:01;;;;;;;2.90;1.30;;;24.00;83.10;;;;;;5034754;28;20428;-79
2022/07/26 08:39:27;;;;;;;3.47;1.50;;;23.90;84.30;;;;;;5034502;28;20041;-78
2022/07/26 08:41:53;;;;;;;2.92;1.30;;;24.00;80.10;;;;;;5033999;28;20034;-79
2022/07/26 08:44:19;;;;;;;3.13;1.70;;;24.00;82.40;;;;;;5037679;28;20021;-77
2022/07/26 08:46:45;;;;;;;2.58;1.58;;;24.10;80.50;;;;;;5021004;28;20111;-77
2022/07/26 08:49:12;;;;;;;4.53;2.38;;;24.10;78.30;;;;;;5039013;28;20064;-76
2022/07/26 08:51:42;;;;;;;6.68;4.43;;;24.20;82.40;;;;;;5033953;28;20504;-76
2022/07/26 08:54:12;;;;;;;9.13;1.83;;;24.20;82.80;;;;;;5017087;28;20037;-77
2022/07/26 08:56:47;;;;;;;2.50;2.08;;;24.20;77.80;;;;;;5026897;28;20029;-78
2022/07/26 08:59:15;;;;;;;8.48;3.70;;;24.20;78.30;;;;;;5039904;28;20491;-78
2022/07/26 09:01:58;;;;;;;3.55;1.92;;;24.20;81.90;;;;;;5038810;28;20025;-78
2022/07/26 09:04:27;;;;;;;3.97;1.90;;;24.20;81.30;;;;;;5037314;28;20039;-77
2022/07/26 09:07:08;;;;;;;4.72;1.67;;;24.20;83.70;;;;;;5039441;28;20036;-79
2022/07/26 09:09:39;;;;;;;4.22;1.98;;;24.30;83.40;;;;;;5013587;28;20083;-78
2022/07/26 09:12:19;;;;;;;2.85;1.45;;;24.50;80.30;;;;;;5036012;28;20056;-78
2022/07/26 09:14:46;;;;;;;2.47;1.45;;;24.50;79.20;;;;;;5022989;28;20099;-79
2022/07/26 09:17:12;;;;;;;3.70;1.75;;;24.60;77.80;;;;;;5039564;28;20052;-78
2022/07/26 09:19:38;;;;;;;3.78;1.60;;;24.60;78.30;;;;;;5047708;28;20036;-78
2022/07/26 09:22:11;;;;;;;5.15;1.60;;;24.70;80.90;;;;;;5042225;28;20097;-77
2022/07/26 09:24:46;;;;;;;1.88;1.65;;;24.60;79.20;;;;;;5028986;28;20103;-79
2022/07/26 09:27:17;;;;;;;3.65;1.40;;;24.50;79.20;;;;;;5022800;28;20034;-79
2022/07/26 09:29:51;;;;;;;2.05;1.52;;;24.30;81.70;;;;;;5040604;28;20026;-78
2022/07/26 09:32:22;;;;;;;2.90;1.40;;;24.20;81.60;;;;;;5047819;28;20091;-79
2022/07/26 09:34:51;;;;;;;1.60;1.40;;;24.10;82.10;;;;;;5040847;28;20038;-78
2022/07/26 09:37:18;;;;;;;2.92;2.08;;;24.20;82.40;;;;;;5046612;28;20037;-78
2022/07/26 09:39:58;;;;;;;2.80;1.60;;;24.40;81.50;;;;;;5046190;28;20038;-78
2022/07/26 09:42:25;;;;;;;2.10;1.40;;;24.40;82.10;;;;;;5036762;28;20480;-78
2022/07/26 09:44:53;;;;;;;2.75;1.50;;;24.40;77.50;;;;;;5051200;28;20448;-78
2022/07/26 09:47:20;;;;;;;3.30;1.30;;;24.40;81.90;;;;;;5042225;28;20025;-78
2022/07/26 09:49:46;;;;;;;1.83;1.48;;;24.50;75.10;;;;;;5030228;28;20053;-78
2022/07/26 09:52:15;;;;;;;2.17;1.20;;;24.60;78.30;;;;;;5035350;28;20029;-75
2022/07/26 09:54:44;;;;;;;3.20;1.50;;;24.70;76.50;;;;;;5043394;28;20041;-76
2022/07/26 09:57:10;;;;;;;5.45;1.30;;;24.80;77.10;;;;;;5045102;28;20033;-76
2022/07/26 09:59:36;;;;;;;2.90;1.48;;;24.90;74.60;;;;;;5033091;28;20047;-76
2022/07/26 10:02:02;;;;;;;5.88;1.35;;;25.00;76.80;;;;;;5030352;28;20747;-75
2022/07/26 10:04:28;;;;;;;2.00;1.20;;;25.20;76.00;;;;;;5033270;28;20029;-76
2022/07/26 10:06:57;;;;;;;4.25;1.25;;;25.40;77.60;;;;;;5039610;28;20036;-76
2022/07/26 10:09:23;;;;;;;2.67;1.10;;;25.50;73.30;;;;;;5039900;28;20035;-76
2022/07/26 10:11:56;;;;;;;4.43;1.25;;;25.60;72.40;;;;;;5040039;28;20079;-77
2022/07/26 10:14:46;;;;;;;3.63;1.52;;;25.70;71.30;;;;;;5036040;28;20033;-77
2022/07/26 10:17:27;;;;;;;3.55;1.10;;;25.80;71.10;;;;;;5037772;28;20029;-76
2022/07/26 10:20:07;;;;;;;1.98;1.10;;;25.80;71.70;;;;;;5034481;28;20652;-77
2022/07/26 10:22:50;;;;;;;2.63;0.98;;;25.90;68.90;;;;;;5026481;28;20419;-77
2022/07/26 10:25:16;;;;;;;1.92;1.00;;;25.70;70.50;;;;;;5020881;28;20512;-77
2022/07/26 10:27:44;;;;;;;1.70;1.50;;;25.60;68.80;;;;;;5018144;28;20026;-77
2022/07/26 10:30:16;;;;;;;3.97;1.13;;;25.40;69.80;;;;;;5033591;28;20026;-76
2022/07/26 10:33:00;;;;;;;1.38;0.93;;;25.10;70.80;;;;;;5037704;28;20025;-77
2022/07/26 10:35:43;;;;;;;1.88;1.15;;;24.90;72.00;;;;;;5037520;28;20376;-77
2022/07/26 10:38:21;;;;;;;1.70;1.20;;;24.80;73.60;;;;;;5038961;28;20029;-77
2022/07/26 10:41:00;;;;;;;1.88;1.25;;;24.70;73.00;;;;;;5038723;28;20040;-77
2022/07/26 10:43:27;;;;;;;1.15;0.98;;;24.70;75.60;;;;;;5019671;28;20049;-80
2022/07/26 10:46:12;;;;;;;1.73;0.90;;;24.70;72.40;;;;;;5053561;28;20040;-79
2022/07/26 10:48:57;;;;;;;2.85;0.93;;;24.70;73.40;;;;;;5045935;28;20031;-80
2022/07/26 10:51:25;;;;;;;2.10;1.45;;;24.70;69.30;;;;;;5023954;28;20135;-77
2022/07/26 10:54:12;;;;;;;1.50;1.00;;;24.90;69.90;;;;;;5046527;28;20041;-79
2022/07/26 10:56:38;;;;;;;0.73;0.73;;;25.00;67.00;;;;;;5022400;28;20034;-80
2022/07/26 10:59:05;;;;;;;2.50;0.90;;;25.20;66.20;;;;;;5031194;28;20039;-79
2022/07/26 11:01:33;;;;;;;1.58;1.02;;;25.30;68.00;;;;;;5049462;28;20021;-79
2022/07/26 11:03:59;;;;;;;1.98;1.02;;;25.40;67.70;;;;;;5036274;28;20026;-78
2022/07/26 11:06:28;;;;;;;1.77;1.00;;;25.60;70.20;;;;;;5033673;28;20104;-79
2022/07/26 11:08:54;;;;;;;1.50;1.08;;;25.70;67.40;;;;;;5041311;28;20552;-78
2022/07/26 11:11:31;;;;;;;2.13;1.00;;;25.90;67.30;;;;;;5048992;28;20515;-77
2022/07/26 11:14:08;;;;;;;3.60;0.90;;;26.00;67.20;;;;;;5041866;28;20510;-78
2022/07/26 11:16:42;;;;;;;2.20;1.13;;;26.00;64.20;;;;;;5048077;28;20462;-78
2022/07/26 11:19:28;;;;;;;1.40;0.90;;;25.90;63.40;;;;;;5036900;28;20025;-78
2022/07/26 11:21:57;;;;;;;1.15;0.80;;;25.80;67.20;;;;;;5042740;28;20556;-78
2022/07/26 11:24:25;;;;;;;1.00;0.82;;;25.90;67.40;;;;;;5056973;28;20029;-79
2022/07/26 11:26:51;;;;;;;2.33;1.08;;;26.00;64.30;;;;;;5053009;28;20029;-78
2022/07/26 11:29:33;;;;;;;2.28;0.93;;;25.90;62.90;;;;;;5049312;28;20030;-78
2022/07/26 11:31:59;;;;;;;1.90;1.02;;;25.70;67.00;;;;;;5040177;28;20651;-79
2022/07/26 11:34:28;;;;;;;1.63;1.02;;;25.50;66.00;;;;;;5030368;28;20470;-78
2022/07/26 11:36:56;;;;;;;1.70;1.00;;;25.30;66.30;;;;;;5025485;28;20029;-78
2022/07/26 11:39:26;;;;;;;3.67;0.90;;;25.10;67.30;;;;;;5041968;28;20033;-79
2022/07/26 11:41:58;;;;;;;0.88;0.80;;;25.00;68.10;;;;;;5052450;28;20025;-78
2022/07/26 11:44:24;;;;;;;1.85;1.10;;;24.90;68.40;;;;;;5039338;28;20033;-78
2022/07/26 11:46:50;;;;;;;1.40;0.95;;;24.80;66.90;;;;;;5040241;28;20092;-79
2022/07/26 11:49:26;;;;;;;1.55;0.82;;;25.00;70.90;;;;;;5039820;28;20029;-79
2022/07/26 11:51:59;;;;;;;1.92;1.13;;;25.20;71.60;;;;;;5034918;28;20043;-79
2022/07/26 11:54:31;;;;;;;3.55;1.00;;;25.40;69.50;;;;;;5020611;28;20068;-80
2022/07/26 11:57:03;;;;;;;1.75;1.00;;;25.70;68.10;;;;;;5042219;28;20029;-79
2022/07/26 11:59:31;;;;;;;2.05;0.90;;;26.00;65.80;;;;;;5036899;28;20075;-79
2022/07/26 12:01:58;;;;;;;1.00;0.80;;;26.30;66.00;;;;;;5023867;28;20044;-82
2022/07/26 12:04:29;;;;;;;0.77;0.70;;;26.70;68.30;;;;;;5038078;28;20052;-80
2022/07/26 12:06:56;;;;;;;3.47;1.00;;;27.00;65.60;;;;;;5042215;28;20167;-81
2022/07/26 12:09:34;;;;;;;2.13;0.90;;;27.30;62.30;;;;;;5038094;28;20042;-78
2022/07/26 12:12:09;;;;;;;1.23;0.80;;;27.60;60.00;;;;;;5008064;28;20033;-79
2022/07/26 12:14:37;;;;;;;1.80;1.05;;;27.80;59.40;;;;;;5039166;28;20033;-78
2022/07/26 12:17:20;;;;;;;2.45;1.27;;;27.90;60.70;;;;;;5026301;28;20032;-78
2022/07/26 12:19:46;;;;;;;3.55;0.90;;;28.00;57.80;;;;;;5043592;28;20132;-78
2022/07/26 12:22:17;;;;;;;1.40;0.63;;;27.80;57.20;;;;;;5037840;28;20061;-79
2022/07/26 12:24:57;;;;;;;2.85;1.77;;;27.80;58.90;;;;;;5010980;28;20450;-78
2022/07/26 12:27:26;;;;;;;1.13;0.90;;;27.70;55.70;;;;;;5041925;28;20484;-79
2022/07/26 12:30:14;;;;;;;2.58;0.90;;;27.70;57.40;;;;;;5048800;28;20040;-78
2022/07/26 12:32:43;;;;;;;2.10;0.65;;;27.80;56.30;;;;;;5042455;28;20033;-79
2022/07/26 12:35:13;;;;;;;0.80;0.70;;;27.90;56.60;;;;;;5041993;28;20040;-79
2022/07/26 12:37:45;;;;;;;1.48;1.00;;;28.10;58.10;;;;;;5029477;28;20040;-80
2022/07/26 12:40:15;;;;;;;2.15;0.95;;;28.40;58.10;;;;;;5044688;28;20034;-79
2022/07/26 12:42:53;;;;;;;1.75;0.77;;;28.70;57.70;;;;;;5039464;28;20701;-80
2022/07/26 12:45:24;;;;;;;2.65;1.00;;;28.90;55.10;;;;;;5052900;28;20099;-79
2022/07/26 12:47:52;;;;;;;1.55;0.90;;;29.10;55.30;;;;;;5046571;28;20029;-78
2022/07/26 12:50:20;;;;;;;1.33;0.60;;;29.00;53.20;;;;;;5037260;28;20037;-79
2022/07/26 12:52:46;;;;;;;1.10;0.70;;;28.90;55.80;;;;;;5037013;28;20033;-78